Time;durP1;ratioP1;P1;durP2;ratioP2;P2;SDS_P1;SDS_P2;PMS_P1;PMS_P2;Temp;Humidity;BMP_temperature;BMP_pressure;BME280_temperature;BME280_humidity;BME280_pressure;Samples;Min_cycle;Max_cycle;Signal;HPM_P1;HPM_P2
2023/09/16 00:01:12;;;;;;;12.27;7.95;;;16.10;76.60;;;;;;5038224;28;20383;-73
2023/09/16 00:03:37;;;;;;;9.38;7.57;;;16.10;76.00;;;;;;5035899;28;20390;-74
2023/09/16 00:06:04;;;;;;;12.80;7.40;;;16.20;75.50;;;;;;5021776;28;20430;-74
2023/09/16 00:08:32;;;;;;;9.60;7.07;;;16.30;75.00;;;;;;5035337;28;20432;-73
2023/09/16 00:10:58;;;;;;;10.98;5.97;;;16.40;72.20;;;;;;5016666;28;20398;-74
2023/09/16 00:13:23;;;;;;;13.40;6.65;;;16.40;72.90;;;;;;5034373;28;20379;-74
2023/09/16 00:15:49;;;;;;;12.88;7.28;;;16.30;73.50;;;;;;5035404;28;20450;-74
2023/09/16 00:18:16;;;;;;;10.45;6.70;;;16.20;73.50;;;;;;5032459;28;20387;-74
2023/09/16 00:20:42;;;;;;;9.90;6.57;;;16.20;74.90;;;;;;5032221;28;20395;-74
2023/09/16 00:23:08;;;;;;;11.43;6.53;;;16.10;74.80;;;;;;5031453;28;20769;-73
2023/09/16 00:25:34;;;;;;;8.55;6.20;;;16.10;75.10;;;;;;5034342;28;20446;-73
2023/09/16 00:28:00;;;;;;;8.50;6.60;;;16.00;76.00;;;;;;5032917;28;20811;-74
2023/09/16 00:30:26;;;;;;;7.87;6.23;;;15.90;77.60;;;;;;5032389;28;20387;-73
2023/09/16 00:32:51;;;;;;;9.52;6.38;;;15.70;79.20;;;;;;5031962;28;20391;-73
2023/09/16 00:35:17;;;;;;;10.90;6.45;;;15.70;80.90;;;;;;5032965;28;20424;-73
2023/09/16 00:37:43;;;;;;;13.10;6.37;;;15.70;82.60;;;;;;5032479;28;20481;-74
2023/09/16 00:40:09;;;;;;;12.27;6.60;;;15.60;82.30;;;;;;5032805;28;20394;-74
2023/09/16 00:42:38;;;;;;;9.75;6.40;;;15.60;82.80;;;;;;5032047;28;20390;-74
2023/09/16 00:45:10;;;;;;;7.25;5.85;;;15.60;83.20;;;;;;5031615;28;20687;-73
2023/09/16 00:47:36;;;;;;;9.98;5.85;;;15.60;83.80;;;;;;5031323;28;20722;-73
2023/09/16 00:50:07;;;;;;;9.80;6.00;;;15.50;84.30;;;;;;5031426;28;20418;-73
2023/09/16 00:52:33;;;;;;;7.45;5.80;;;15.50;84.30;;;;;;5031396;28;20382;-73
2023/09/16 00:54:59;;;;;;;12.48;6.65;;;15.50;85.00;;;;;;5031889;28;20387;-73
2023/09/16 00:57:25;;;;;;;10.70;6.70;;;15.40;85.30;;;;;;5031337;28;20445;-73
2023/09/16 00:59:50;;;;;;;9.65;6.57;;;15.40;86.40;;;;;;5031839;28;20386;-73
2023/09/16 01:02:17;;;;;;;11.30;7.10;;;15.60;85.50;;;;;;5032822;28;20383;-73
2023/09/16 01:04:43;;;;;;;13.38;6.22;;;15.60;84.60;;;;;;5032267;28;20383;-73
2023/09/16 01:07:09;;;;;;;9.20;6.57;;;15.70;85.00;;;;;;5031748;28;20449;-73
2023/09/16 01:09:35;;;;;;;8.93;6.30;;;15.70;85.20;;;;;;5032221;28;20879;-73
2023/09/16 01:12:01;;;;;;;7.85;6.75;;;15.70;85.10;;;;;;5014107;28;20445;-74
2023/09/16 01:14:27;;;;;;;9.52;6.38;;;15.80;84.40;;;;;;5031568;28;20383;-73
2023/09/16 01:16:57;;;;;;;9.47;6.00;;;15.90;83.40;;;;;;5032357;28;20386;-73
2023/09/16 01:19:32;;;;;;;11.07;6.03;;;16.00;82.70;;;;;;5032619;28;20410;-75
2023/09/16 01:21:59;;;;;;;10.65;6.28;;;16.10;81.90;;;;;;5031675;28;20440;-73
2023/09/16 01:24:24;;;;;;;10.40;6.07;;;16.20;79.20;;;;;;5032492;28;20474;-74
2023/09/16 01:26:50;;;;;;;10.13;5.90;;;16.30;78.60;;;;;;5030756;28;20474;-74
2023/09/16 01:29:17;;;;;;;8.07;6.15;;;16.30;78.10;;;;;;5031155;28;20415;-74
2023/09/16 01:31:45;;;;;;;11.23;6.13;;;16.40;78.00;;;;;;5030315;28;20430;-74
2023/09/16 01:34:41;;;;;;;7.53;5.70;;;16.40;77.30;;;;;;5031153;28;20410;-74
2023/09/16 01:37:12;;;;;;;6.35;5.68;;;16.50;76.20;;;;;;5030777;28;20732;-74
2023/09/16 01:39:40;;;;;;;9.38;5.70;;;16.50;75.50;;;;;;5030917;28;20718;-74
2023/09/16 01:42:06;;;;;;;8.43;5.82;;;16.60;75.00;;;;;;5030759;28;20386;-74
2023/09/16 01:44:32;;;;;;;10.05;6.00;;;16.60;74.50;;;;;;5034450;28;20398;-74
2023/09/16 01:46:57;;;;;;;6.90;5.88;;;16.60;73.50;;;;;;5034373;28;20884;-73
2023/09/16 01:49:23;;;;;;;8.00;5.80;;;16.50;73.40;;;;;;5034351;28;20426;-74
2023/09/16 01:51:49;;;;;;;7.90;5.80;;;16.50;73.60;;;;;;5033959;28;20390;-73
2023/09/16 01:54:15;;;;;;;9.05;5.93;;;16.50;73.60;;;;;;5034312;28;20398;-73
2023/09/16 01:56:44;;;;;;;8.13;5.90;;;16.40;74.40;;;;;;5034289;28;20383;-73
2023/09/16 01:59:09;;;;;;;11.35;5.97;;;16.30;76.10;;;;;;5035670;28;20378;-73
2023/09/16 02:01:35;;;;;;;12.60;5.80;;;16.30;75.50;;;;;;5033961;28;20389;-72
2023/09/16 02:04:00;;;;;;;6.63;5.43;;;16.20;76.40;;;;;;5033883;28;20426;-74
2023/09/16 02:06:26;;;;;;;9.90;6.00;;;16.20;76.80;;;;;;5033828;28;20457;-74
2023/09/16 02:08:52;;;;;;;10.37;5.80;;;16.10;77.80;;;;;;5033879;28;20474;-72
2023/09/16 02:11:17;;;;;;;13.47;6.27;;;16.10;79.00;;;;;;5015909;28;20387;-73
2023/09/16 02:13:43;;;;;;;11.20;6.60;;;16.00;79.10;;;;;;5033937;28;20465;-72
2023/09/16 02:16:10;;;;;;;8.80;6.00;;;15.90;80.40;;;;;;5033715;28;20402;-74
2023/09/16 02:18:36;;;;;;;11.70;8.07;;;15.90;81.20;;;;;;5016062;28;20510;-74
2023/09/16 02:21:01;;;;;;;16.13;10.02;;;15.90;81.70;;;;;;5015921;28;20482;-74
2023/09/16 02:23:27;;;;;;;11.35;8.38;;;15.80;82.00;;;;;;5034112;28;20426;-74
2023/09/16 02:25:53;;;;;;;10.77;7.67;;;15.90;81.60;;;;;;5033760;28;20880;-74
2023/09/16 02:28:18;;;;;;;12.47;7.50;;;15.90;81.30;;;;;;5017292;28;20525;-74
2023/09/16 02:30:47;;;;;;;13.40;7.13;;;15.90;81.60;;;;;;5017240;28;20515;-74
2023/09/16 02:33:12;;;;;;;9.68;6.53;;;15.80;82.10;;;;;;5033345;28;20448;-73
2023/09/16 02:35:41;;;;;;;14.30;6.87;;;15.90;82.20;;;;;;5015061;28;21048;-74
2023/09/16 02:38:06;;;;;;;12.60;6.80;;;15.90;81.70;;;;;;5033325;28;20434;-74
2023/09/16 02:40:32;;;;;;;12.57;7.00;;;15.90;81.50;;;;;;5034938;28;20383;-73
2023/09/16 02:42:57;;;;;;;10.93;6.07;;;15.80;82.10;;;;;;5017607;28;20410;-73
2023/09/16 02:45:23;;;;;;;10.25;6.88;;;15.80;83.00;;;;;;5035343;28;20399;-74
2023/09/16 02:47:49;;;;;;;9.20;6.30;;;15.70;84.50;;;;;;5034071;28;20391;-74
2023/09/16 02:50:14;;;;;;;9.82;6.68;;;15.70;84.80;;;;;;5034015;28;20380;-74
2023/09/16 02:52:40;;;;;;;10.10;6.50;;;15.70;83.00;;;;;;5034217;28;20387;-74
2023/09/16 02:55:06;;;;;;;8.77;6.50;;;15.70;84.10;;;;;;5032211;28;20441;-74
2023/09/16 02:57:31;;;;;;;9.02;6.75;;;15.70;82.90;;;;;;5033525;28;20387;-74
2023/09/16 02:59:57;;;;;;;10.23;7.25;;;15.80;82.30;;;;;;5033988;28;20396;-74
2023/09/16 03:02:22;;;;;;;9.03;7.13;;;15.80;81.00;;;;;;5032791;28;20414;-74
2023/09/16 03:04:48;;;;;;;8.60;6.47;;;15.70;79.10;;;;;;5032612;28;20395;-73
2023/09/16 03:07:13;;;;;;;8.40;6.10;;;15.70;79.10;;;;;;5043871;23;20442;-71
2023/09/16 03:09:39;;;;;;;13.43;6.70;;;15.70;78.20;;;;;;5033113;28;20552;-72
2023/09/16 03:12:05;;;;;;;13.70;7.33;;;15.70;78.30;;;;;;5033141;28;20423;-73
2023/09/16 03:14:30;;;;;;;8.60;6.13;;;15.60;79.20;;;;;;5033225;28;20466;-72
2023/09/16 03:16:56;;;;;;;10.45;6.85;;;15.80;76.00;;;;;;5036493;28;20382;-70
2023/09/16 03:19:21;;;;;;;8.90;6.80;;;15.80;75.60;;;;;;5052911;28;20386;-71
2023/09/16 03:21:47;;;;;;;8.70;6.23;;;16.00;72.60;;;;;;5052508;28;20865;-71
2023/09/16 03:24:13;;;;;;;8.45;6.50;;;15.90;73.00;;;;;;5052584;28;20386;-72
2023/09/16 03:26:38;;;;;;;8.00;6.00;;;15.90;73.80;;;;;;5052727;28;20381;-71
2023/09/16 03:29:04;;;;;;;9.23;7.00;;;15.80;73.70;;;;;;5052320;28;20405;-70
2023/09/16 03:31:30;;;;;;;10.60;6.70;;;15.80;74.00;;;;;;5052018;28;20377;-70
2023/09/16 03:33:55;;;;;;;13.25;6.90;;;15.80;74.10;;;;;;5052559;28;20439;-71
2023/09/16 03:36:22;;;;;;;10.73;6.80;;;15.70;75.30;;;;;;5052301;28;20373;-72
2023/09/16 03:38:51;;;;;;;10.20;6.80;;;15.70;75.70;;;;;;5052481;28;20518;-70
2023/09/16 03:41:16;;;;;;;8.43;6.50;;;15.80;75.90;;;;;;5052236;28;20400;-71
2023/09/16 03:43:43;;;;;;;9.43;6.27;;;15.70;75.80;;;;;;5051917;28;20393;-71
2023/09/16 03:46:09;;;;;;;9.35;6.53;;;15.70;75.60;;;;;;5052345;28;20394;-70
2023/09/16 03:48:34;;;;;;;8.07;5.75;;;15.80;74.30;;;;;;5052520;28;20924;-70
2023/09/16 03:51:00;;;;;;;8.43;6.30;;;15.80;74.50;;;;;;5051976;28;20389;-70
2023/09/16 03:53:26;;;;;;;8.70;6.70;;;15.80;73.00;;;;;;5052000;28;20388;-71
2023/09/16 03:55:52;;;;;;;6.97;5.93;;;16.00;70.80;;;;;;5052229;28;20409;-70
2023/09/16 03:58:17;;;;;;;10.05;6.20;;;16.00;70.10;;;;;;5051685;28;20459;-70
2023/09/16 04:00:43;;;;;;;7.90;6.10;;;16.00;69.40;;;;;;5034131;28;20421;-71
2023/09/16 04:03:09;;;;;;;9.57;6.47;;;16.10;69.10;;;;;;5052790;28;20389;-71
2023/09/16 04:05:34;;;;;;;9.80;5.90;;;16.20;68.00;;;;;;5053981;28;20381;-72
2023/09/16 04:08:00;;;;;;;9.05;5.60;;;16.20;67.90;;;;;;5053035;28;20398;-71
2023/09/16 04:10:25;;;;;;;8.05;6.30;;;16.20;67.10;;;;;;5051451;28;20431;-70
2023/09/16 04:12:51;;;;;;;6.90;5.97;;;16.30;65.90;;;;;;5051436;28;20392;-70
2023/09/16 04:15:17;;;;;;;7.32;5.80;;;16.50;65.00;;;;;;5051448;28;20468;-69
2023/09/16 04:17:42;;;;;;;7.00;5.40;;;16.60;64.10;;;;;;5051720;28;20369;-71
2023/09/16 04:20:09;;;;;;;7.07;5.40;;;16.70;63.00;;;;;;5051595;28;20409;-70
2023/09/16 04:22:35;;;;;;;7.22;5.63;;;16.80;60.40;;;;;;5051468;28;20396;-70
2023/09/16 04:25:01;;;;;;;7.47;5.70;;;16.90;59.10;;;;;;5051433;28;20468;-70
2023/09/16 04:27:26;;;;;;;6.20;5.30;;;17.00;58.00;;;;;;5051783;28;20464;-70
2023/09/16 04:29:52;;;;;;;7.75;5.40;;;17.00;58.40;;;;;;5051981;28;20934;-71
2023/09/16 04:32:18;;;;;;;10.35;5.80;;;17.00;57.60;;;;;;5051317;28;20408;-71
2023/09/16 04:34:43;;;;;;;9.63;5.80;;;17.00;57.00;;;;;;5051516;28;20464;-71
2023/09/16 04:37:09;;;;;;;8.97;5.90;;;17.10;56.90;;;;;;5051454;28;20439;-71
2023/09/16 04:39:35;;;;;;;9.10;5.70;;;17.10;56.80;;;;;;5033942;28;20389;-71
2023/09/16 04:42:02;;;;;;;7.05;5.50;;;17.10;56.90;;;;;;5051555;28;20403;-71
2023/09/16 04:44:28;;;;;;;6.10;5.40;;;17.00;57.20;;;;;;5051438;28;20385;-71
2023/09/16 04:46:54;;;;;;;6.75;5.45;;;17.20;56.30;;;;;;5051701;28;20404;-70
2023/09/16 04:49:20;;;;;;;6.63;5.35;;;17.20;56.00;;;;;;5052624;28;20429;-71
2023/09/16 04:51:45;;;;;;;6.77;5.17;;;17.10;55.80;;;;;;5052977;28;20462;-71
2023/09/16 04:54:11;;;;;;;8.70;5.73;;;17.10;56.10;;;;;;5053629;28;20396;-70
2023/09/16 04:56:37;;;;;;;7.13;5.25;;;16.90;57.00;;;;;;5053732;28;20715;-72
2023/09/16 04:59:03;;;;;;;7.03;5.90;;;17.10;55.60;;;;;;5062043;28;20388;-72
2023/09/16 05:01:29;;;;;;;7.20;5.63;;;17.00;56.60;;;;;;5063011;28;20416;-71
2023/09/16 05:03:58;;;;;;;10.25;6.35;;;16.90;57.80;;;;;;5061924;28;20393;-72
2023/09/16 05:06:24;;;;;;;8.23;5.90;;;17.10;57.10;;;;;;5066662;28;20389;-72
2023/09/16 05:08:50;;;;;;;9.37;6.70;;;17.00;58.30;;;;;;5065470;28;20432;-71
2023/09/16 05:11:15;;;;;;;8.90;6.10;;;17.00;58.30;;;;;;5059465;28;20415;-72
2023/09/16 05:13:41;;;;;;;8.85;6.10;;;17.00;58.20;;;;;;5054867;28;20381;-72
2023/09/16 05:16:09;;;;;;;8.20;6.40;;;16.90;59.40;;;;;;5051584;28;20722;-72
2023/09/16 05:18:35;;;;;;;8.70;5.95;;;16.80;61.20;;;;;;5054501;28;20385;-71
2023/09/16 05:21:01;;;;;;;8.18;6.70;;;16.90;60.60;;;;;;5054658;28;20389;-71
2023/09/16 05:23:26;;;;;;;10.75;7.18;;;16.70;61.90;;;;;;5054848;28;20393;-70
2023/09/16 05:25:52;;;;;;;8.13;6.40;;;16.80;61.50;;;;;;5054714;28;20815;-71
2023/09/16 05:28:18;;;;;;;9.93;6.50;;;16.70;62.90;;;;;;5054640;28;20773;-71
2023/09/16 05:30:44;;;;;;;8.27;6.60;;;16.60;62.30;;;;;;5054633;28;20923;-70
2023/09/16 05:33:12;;;;;;;10.30;6.80;;;16.60;62.90;;;;;;5054585;28;20876;-70
2023/09/16 05:35:39;;;;;;;9.00;7.13;;;16.80;62.40;;;;;;5054928;28;20729;-73
2023/09/16 05:38:05;;;;;;;9.50;6.97;;;17.00;61.00;;;;;;5054704;28;20489;-71
2023/09/16 05:40:31;;;;;;;19.13;8.68;;;17.00;59.80;;;;;;5054955;28;20463;-73
2023/09/16 05:42:56;;;;;;;14.77;7.50;;;17.10;60.00;;;;;;5054194;28;20767;-72
2023/09/16 05:45:22;;;;;;;12.50;7.80;;;17.10;59.70;;;;;;5054488;28;20446;-71
2023/09/16 05:47:51;;;;;;;9.63;7.23;;;17.10;60.10;;;;;;5050308;28;20492;-71
2023/09/16 05:50:17;;;;;;;10.57;7.63;;;17.00;60.60;;;;;;5051741;28;20927;-71
2023/09/16 05:52:43;;;;;;;9.97;7.43;;;16.90;61.70;;;;;;5050985;28;20424;-70
2023/09/16 05:55:09;;;;;;;58.23;39.67;;;16.90;62.10;;;;;;5051085;28;20743;-70
2023/09/16 05:57:34;;;;;;;10.00;7.70;;;16.80;63.50;;;;;;5052182;28;20398;-71
2023/09/16 06:00:00;;;;;;;11.87;7.53;;;16.90;63.40;;;;;;5051214;28;20983;-71
2023/09/16 06:02:25;;;;;;;40.72;27.38;;;16.90;64.70;;;;;;5051492;28;20389;-72
2023/09/16 06:04:51;;;;;;;31.02;21.27;;;17.00;63.10;;;;;;5033543;28;20385;-71
2023/09/16 06:07:17;;;;;;;11.77;8.60;;;16.90;65.10;;;;;;5051344;28;20493;-70
2023/09/16 06:09:42;;;;;;;13.37;9.83;;;17.10;62.30;;;;;;5051911;28;20902;-71
2023/09/16 06:12:08;;;;;;;14.00;8.77;;;17.10;62.50;;;;;;5050922;28;20397;-71
2023/09/16 06:14:35;;;;;;;10.18;6.85;;;17.20;60.60;;;;;;5051864;28;20378;-70
2023/09/16 06:17:00;;;;;;;14.37;9.80;;;17.30;60.50;;;;;;5052966;28;20499;-70
2023/09/16 06:19:27;;;;;;;10.10;6.90;;;17.40;60.40;;;;;;5053858;28;20416;-69
2023/09/16 06:21:54;;;;;;;13.82;6.90;;;17.40;60.40;;;;;;5053564;28;20393;-72
2023/09/16 06:24:20;;;;;;;10.43;6.68;;;17.50;59.90;;;;;;5053611;28;20468;-71
2023/09/16 06:26:46;;;;;;;10.50;6.50;;;17.60;60.00;;;;;;5053552;28;20755;-71
2023/09/16 06:29:11;;;;;;;13.17;7.83;;;17.60;59.70;;;;;;5035303;28;20817;-70
2023/09/16 06:31:37;;;;;;;12.35;7.60;;;17.70;59.30;;;;;;5052986;28;20417;-72
2023/09/16 06:34:05;;;;;;;27.13;17.23;;;17.70;59.50;;;;;;5053359;28;20386;-71
2023/09/16 06:36:31;;;;;;;10.57;7.43;;;17.80;59.80;;;;;;5053618;28;20385;-71
2023/09/16 06:38:56;;;;;;;10.30;6.40;;;17.80;59.70;;;;;;5053345;28;20546;-71
2023/09/16 06:41:22;;;;;;;18.52;8.10;;;17.90;59.00;;;;;;5054230;28;20382;-70
2023/09/16 06:43:48;;;;;;;20.55;8.45;;;18.00;57.90;;;;;;5054290;28;20385;-71
2023/09/16 06:46:13;;;;;;;15.00;7.43;;;18.20;56.70;;;;;;5053795;28;20404;-71
2023/09/16 06:48:39;;;;;;;11.50;6.80;;;18.40;54.80;;;;;;5054176;28;20437;-71
2023/09/16 06:51:04;;;;;;;10.80;6.20;;;18.40;53.60;;;;;;5054025;28;20389;-70
2023/09/16 06:53:31;;;;;;;16.48;7.70;;;18.60;51.50;;;;;;5053660;28;20397;-72
2023/09/16 06:55:57;;;;;;;11.73;6.80;;;18.60;51.70;;;;;;5053454;28;20390;-72
2023/09/16 06:58:23;;;;;;;11.77;7.20;;;18.50;52.90;;;;;;5054039;28;20405;-71
2023/09/16 07:00:48;;;;;;;16.60;9.93;;;18.70;50.80;;;;;;5053393;28;20589;-71
2023/09/16 07:03:14;;;;;;;16.00;10.65;;;18.70;51.10;;;;;;5053820;28;20761;-73
2023/09/16 07:05:48;;;;;;;10.30;7.53;;;18.70;50.00;;;;;;5035267;28;20409;-72
2023/09/16 07:08:15;;;;;;;9.33;6.90;;;18.80;48.50;;;;;;5048185;28;20423;-72
2023/09/16 07:10:41;;;;;;;9.75;5.80;;;18.90;46.70;;;;;;5053380;28;20397;-72
2023/09/16 07:13:07;;;;;;;11.45;6.90;;;19.00;46.80;;;;;;5052613;28;20382;-71
2023/09/16 07:15:32;;;;;;;7.63;5.72;;;19.20;45.10;;;;;;5035058;28;20948;-72
2023/09/16 07:17:58;;;;;;;9.60;5.60;;;19.30;44.20;;;;;;5052865;28;20389;-72
2023/09/16 07:20:23;;;;;;;6.90;5.47;;;19.40;43.80;;;;;;5052786;28;20389;-71
2023/09/16 07:22:51;;;;;;;9.40;5.63;;;19.50;42.50;;;;;;5052331;28;20378;-72
2023/09/16 07:25:17;;;;;;;10.85;5.80;;;19.60;40.40;;;;;;5051188;28;20444;-72
2023/09/16 07:27:42;;;;;;;8.38;5.78;;;19.70;40.60;;;;;;5051848;28;20890;-72
2023/09/16 07:30:08;;;;;;;15.00;8.83;;;19.90;39.90;;;;;;5052886;28;20531;-72
2023/09/16 07:32:33;;;;;;;5.35;4.85;;;19.90;39.60;;;;;;5053029;28;20531;-71
2023/09/16 07:34:59;;;;;;;8.23;5.57;;;19.90;39.70;;;;;;5053378;28;20447;-71
2023/09/16 07:37:25;;;;;;;7.80;5.40;;;19.90;39.90;;;;;;5053133;28;20381;-71
2023/09/16 07:39:51;;;;;;;8.38;5.13;;;20.20;39.30;;;;;;5052693;28;20392;-70
2023/09/16 07:42:16;;;;;;;6.68;5.05;;;20.30;39.80;;;;;;5051954;28;20419;-71
2023/09/16 07:44:42;;;;;;;6.75;4.70;;;20.30;39.80;;;;;;5053095;28;20458;-71
2023/09/16 07:47:07;;;;;;;7.40;4.90;;;20.30;39.00;;;;;;5052207;28;20731;-72
2023/09/16 07:49:33;;;;;;;7.10;5.18;;;20.30;39.00;;;;;;5039553;28;20414;-71
2023/09/16 07:51:58;;;;;;;8.70;4.90;;;20.50;38.20;;;;;;5032009;28;20399;-72
2023/09/16 07:54:24;;;;;;;7.65;5.30;;;20.70;36.70;;;;;;5032469;28;20470;-70
2023/09/16 07:56:50;;;;;;;7.77;4.63;;;21.00;35.90;;;;;;5014369;28;20391;-70
2023/09/16 07:59:20;;;;;;;8.38;4.90;;;21.20;35.00;;;;;;5031994;28;20489;-72
2023/09/16 08:01:46;;;;;;;12.57;4.90;;;21.30;34.00;;;;;;5042870;28;20397;-71
2023/09/16 08:04:12;;;;;;;7.63;4.60;;;21.60;33.30;;;;;;5051276;28;20468;-71
2023/09/16 08:06:37;;;;;;;5.53;4.70;;;21.70;32.40;;;;;;5051350;28;20409;-73
2023/09/16 08:09:03;;;;;;;6.80;4.60;;;21.90;32.00;;;;;;5051714;28;20397;-75
2023/09/16 08:11:29;;;;;;;6.28;5.10;;;22.00;31.60;;;;;;5052650;28;20443;-73
2023/09/16 08:13:54;;;;;;;9.35;5.28;;;22.00;31.50;;;;;;5052910;28;20390;-73
2023/09/16 08:16:20;;;;;;;6.53;4.80;;;22.10;31.40;;;;;;5051768;28;20388;-72
2023/09/16 08:18:46;;;;;;;6.95;4.80;;;21.90;31.70;;;;;;5051837;28;20489;-73
2023/09/16 08:21:11;;;;;;;6.55;4.65;;;21.90;32.20;;;;;;5051561;28;20463;-72
2023/09/16 08:23:37;;;;;;;8.93;4.93;;;22.00;31.70;;;;;;5051610;28;20390;-72
2023/09/16 08:26:03;;;;;;;9.45;5.30;;;22.00;32.00;;;;;;5050960;28;20893;-71
2023/09/16 08:28:30;;;;;;;7.07;5.00;;;22.10;31.70;;;;;;5037279;28;20411;-71
2023/09/16 08:30:56;;;;;;;8.38;5.32;;;22.00;31.50;;;;;;5031475;28;20387;-73
2023/09/16 08:33:21;;;;;;;5.53;4.60;;;21.90;31.70;;;;;;5032414;28;20474;-73
2023/09/16 08:35:47;;;;;;;9.30;5.20;;;21.90;31.70;;;;;;5032267;28;20430;-72
2023/09/16 08:38:12;;;;;;;8.98;5.07;;;22.00;31.10;;;;;;5048253;28;20393;-71
2023/09/16 08:40:38;;;;;;;6.90;4.90;;;22.00;31.90;;;;;;5052086;28;20398;-73
2023/09/16 08:43:37;;;;;;;8.80;4.95;;;22.10;31.00;;;;;;5054380;28;20412;-72
2023/09/16 08:46:07;;;;;;;5.45;4.80;;;22.20;31.00;;;;;;5048298;28;20390;-72
2023/09/16 08:48:37;;;;;;;5.90;4.60;;;22.20;31.50;;;;;;5053192;28;20436;-72
2023/09/16 08:51:05;;;;;;;7.05;5.20;;;22.10;31.10;;;;;;5053151;28;20377;-72
2023/09/16 08:53:33;;;;;;;8.27;5.43;;;22.20;31.30;;;;;;5053046;28;20484;-72
2023/09/16 08:55:59;;;;;;;9.43;5.18;;;22.30;31.20;;;;;;5053915;28;20390;-73
2023/09/16 08:58:25;;;;;;;6.80;5.03;;;22.40;30.80;;;;;;5053287;28;20474;-71
2023/09/16 09:00:51;;;;;;;9.30;5.10;;;22.50;30.40;;;;;;5053997;28;20494;-73
2023/09/16 09:03:17;;;;;;;7.18;4.78;;;22.60;30.30;;;;;;5054384;28;20389;-72
2023/09/16 09:05:44;;;;;;;8.52;5.10;;;22.60;30.10;;;;;;5053138;28;20395;-73
2023/09/16 09:08:11;;;;;;;9.52;5.10;;;22.80;29.20;;;;;;5062586;23;20528;-76
2023/09/16 09:10:38;;;;;;;6.43;4.85;;;22.80;29.40;;;;;;5056984;28;20727;-77
2023/09/16 09:13:12;;;;;;;7.55;5.10;;;22.90;29.80;;;;;;5054486;28;20393;-78
2023/09/16 09:15:39;;;;;;;7.97;4.80;;;23.10;29.60;;;;;;5055888;28;20472;-76
2023/09/16 09:18:07;;;;;;;7.68;5.10;;;23.30;28.70;;;;;;5043902;28;20476;-76
2023/09/16 09:20:33;;;;;;;8.57;5.20;;;23.20;29.30;;;;;;5050582;28;20742;-75
2023/09/16 09:22:59;;;;;;;10.93;5.50;;;23.20;30.30;;;;;;5050383;28;20386;-75
2023/09/16 09:25:28;;;;;;;7.90;4.75;;;23.20;29.70;;;;;;5048576;28;20399;-74
2023/09/16 09:27:57;;;;;;;6.88;5.00;;;23.30;29.50;;;;;;5032663;28;20389;-74
2023/09/16 09:30:29;;;;;;;10.93;7.27;;;23.40;28.90;;;;;;5050474;28;20397;-76
2023/09/16 09:32:56;;;;;;;10.68;7.80;;;23.40;29.00;;;;;;5029819;28;20824;-76
2023/09/16 09:35:27;;;;;;;12.82;5.47;;;23.40;28.80;;;;;;5032774;28;20400;-77
2023/09/16 09:37:53;;;;;;;12.77;6.05;;;23.30;28.90;;;;;;5050637;28;20382;-75
2023/09/16 09:40:19;;;;;;;7.10;4.78;;;23.40;29.10;;;;;;5055927;28;20796;-76
2023/09/16 09:42:46;;;;;;;8.60;5.70;;;23.50;27.90;;;;;;5051623;28;20391;-75
2023/09/16 09:45:14;;;;;;;10.63;5.70;;;23.50;28.20;;;;;;5050155;28;20461;-75
2023/09/16 09:47:41;;;;;;;9.95;6.20;;;23.80;27.80;;;;;;5048047;28;20916;-74
2023/09/16 09:50:11;;;;;;;9.95;5.30;;;24.10;27.80;;;;;;5032067;28;20476;-77
2023/09/16 09:52:38;;;;;;;9.70;5.07;;;24.20;26.90;;;;;;5051890;28;21001;-75
2023/09/16 09:55:04;;;;;;;6.07;5.30;;;24.40;26.30;;;;;;5038123;28;20403;-76
2023/09/16 09:57:29;;;;;;;11.25;5.72;;;24.80;26.30;;;;;;5049730;28;20485;-76
2023/09/16 09:59:56;;;;;;;6.07;5.07;;;24.90;25.10;;;;;;5050843;28;20381;-77
2023/09/16 10:02:27;;;;;;;7.75;6.03;;;25.00;24.50;;;;;;5048817;28;20906;-75
2023/09/16 10:05:01;;;;;;;7.22;5.65;;;25.10;24.70;;;;;;5052126;28;20873;-78
2023/09/16 10:07:27;;;;;;;7.18;5.20;;;25.20;24.30;;;;;;5032804;28;20914;-76
2023/09/16 10:09:53;;;;;;;8.38;5.40;;;25.10;23.70;;;;;;5033036;28;20493;-76
2023/09/16 10:12:20;;;;;;;7.35;5.03;;;25.00;23.90;;;;;;5033221;28;20473;-77
2023/09/16 10:14:46;;;;;;;7.50;5.40;;;25.10;24.40;;;;;;5033928;28;20383;-75
2023/09/16 10:17:12;;;;;;;7.60;5.40;;;25.20;24.10;;;;;;5032665;28;20387;-76
2023/09/16 10:19:38;;;;;;;7.15;6.05;;;25.30;23.90;;;;;;5038826;28;20393;-77
2023/09/16 10:22:04;;;;;;;8.90;5.60;;;25.20;23.90;;;;;;5035099;28;20820;-77
2023/09/16 10:24:30;;;;;;;6.70;5.10;;;25.30;24.10;;;;;;5053736;28;20829;-77
2023/09/16 10:27:00;;;;;;;7.60;5.03;;;25.40;23.30;;;;;;5054985;28;20405;-77
2023/09/16 10:29:29;;;;;;;7.35;5.43;;;25.40;23.40;;;;;;5058472;28;20421;-74
2023/09/16 10:31:55;;;;;;;8.25;5.50;;;25.50;22.60;;;;;;5057779;28;20470;-77
2023/09/16 10:34:21;;;;;;;6.53;5.10;;;25.60;22.80;;;;;;5057522;28;20456;-75
2023/09/16 10:36:48;;;;;;;9.07;5.70;;;26.00;23.50;;;;;;5057039;28;20429;-77
2023/09/16 10:39:15;;;;;;;8.33;5.13;;;26.00;22.40;;;;;;5057121;28;20393;-77
2023/09/16 10:41:43;;;;;;;5.93;5.32;;;26.20;21.30;;;;;;5054429;28;20401;-77
2023/09/16 10:44:12;;;;;;;7.10;5.18;;;26.30;22.50;;;;;;5055631;28;20409;-76
2023/09/16 10:46:38;;;;;;;12.05;5.80;;;26.30;21.80;;;;;;5054340;28;20381;-77
2023/09/16 10:49:04;;;;;;;6.15;5.55;;;26.20;21.10;;;;;;5057560;28;20441;-78
2023/09/16 10:51:38;;;;;;;6.30;5.13;;;26.40;20.80;;;;;;5057718;28;20408;-78
2023/09/16 10:54:18;;;;;;;8.23;5.32;;;26.40;21.60;;;;;;5058696;28;20434;-77
2023/09/16 10:56:44;;;;;;;8.23;5.70;;;26.30;22.00;;;;;;5056540;28;20834;-77
2023/09/16 10:59:15;;;;;;;6.70;5.60;;;26.20;22.40;;;;;;5055762;28;20404;-77
2023/09/16 11:01:51;;;;;;;7.65;6.00;;;26.00;23.80;;;;;;5056756;28;20431;-77
2023/09/16 11:04:17;;;;;;;7.00;6.07;;;25.90;22.50;;;;;;5055253;28;20384;-77
2023/09/16 11:06:47;;;;;;;7.72;6.03;;;25.80;22.60;;;;;;5056388;28;20424;-76
2023/09/16 11:09:14;;;;;;;9.93;6.10;;;25.80;23.40;;;;;;5057147;28;20455;-77
2023/09/16 11:11:40;;;;;;;11.10;6.73;;;25.70;23.80;;;;;;5059391;28;20382;-77
2023/09/16 11:14:07;;;;;;;9.40;6.38;;;25.60;23.00;;;;;;5059268;28;20378;-77
2023/09/16 11:16:44;;;;;;;8.95;6.45;;;25.70;23.00;;;;;;5047510;28;20382;-77
2023/09/16 11:19:13;;;;;;;8.60;6.30;;;25.60;24.60;;;;;;5049093;28;20394;-77
2023/09/16 11:21:39;;;;;;;12.55;7.68;;;25.60;23.70;;;;;;5058138;28;20485;-77
2023/09/16 11:24:05;;;;;;;8.50;6.50;;;25.60;23.40;;;;;;5054984;28;20396;-77
2023/09/16 11:26:36;;;;;;;7.22;6.22;;;25.60;23.10;;;;;;5054207;28;20481;-77
2023/09/16 11:29:21;;;;;;;11.43;6.30;;;25.60;23.30;;;;;;5054220;28;20410;-77
2023/09/16 11:31:48;;;;;;;11.02;6.60;;;25.70;23.20;;;;;;5053657;28;20422;-77
2023/09/16 11:34:17;;;;;;;10.32;6.38;;;25.70;22.90;;;;;;5038098;28;20389;-78
2023/09/16 11:36:47;;;;;;;8.23;6.43;;;25.70;23.40;;;;;;5059291;28;20377;-76
2023/09/16 11:39:18;;;;;;;10.15;7.03;;;25.80;22.60;;;;;;5053717;28;20400;-76
2023/09/16 11:41:45;;;;;;;7.18;6.10;;;25.70;22.50;;;;;;5053164;28;20390;-76
2023/09/16 11:44:12;;;;;;;8.45;7.03;;;25.80;22.80;;;;;;5054355;28;20754;-76
2023/09/16 11:46:38;;;;;;;9.57;6.40;;;25.80;23.50;;;;;;5054665;28;20499;-77
2023/09/16 11:49:05;;;;;;;10.20;7.07;;;25.90;23.00;;;;;;5054321;28;20991;-77
2023/09/16 11:51:33;;;;;;;7.00;6.30;;;25.90;22.30;;;;;;5052865;28;20385;-76
2023/09/16 11:53:58;;;;;;;7.68;6.40;;;25.90;22.50;;;;;;5060838;28;20405;-77
2023/09/16 11:56:29;;;;;;;7.70;6.70;;;25.90;22.80;;;;;;5059869;28;20394;-76
2023/09/16 11:58:56;;;;;;;8.15;6.40;;;25.90;22.70;;;;;;5063335;28;20425;-77
2023/09/16 12:01:29;;;;;;;7.88;6.65;;;26.00;23.60;;;;;;5058962;28;20388;-77
2023/09/16 12:03:59;;;;;;;11.90;7.17;;;26.00;23.10;;;;;;5059061;28;20392;-78
2023/09/16 12:06:28;;;;;;;10.10;6.70;;;26.10;22.90;;;;;;5057475;28;20392;-77
2023/09/16 12:08:56;;;;;;;7.82;6.68;;;26.10;22.50;;;;;;5058474;28;20441;-77
2023/09/16 12:11:22;;;;;;;11.70;7.40;;;26.40;21.90;;;;;;5061629;28;20389;-76
2023/09/16 12:13:49;;;;;;;8.75;6.68;;;26.40;22.50;;;;;;5062916;28;20373;-76
2023/09/16 12:16:15;;;;;;;11.18;6.90;;;26.60;22.00;;;;;;5067203;28;20384;-77
2023/09/16 12:18:42;;;;;;;11.70;6.30;;;26.60;21.30;;;;;;5070532;28;20424;-75
2023/09/16 12:21:08;;;;;;;9.13;6.53;;;26.70;21.50;;;;;;5068210;28;20389;-76
2023/09/16 12:23:34;;;;;;;8.75;6.88;;;27.00;22.30;;;;;;5060680;28;20869;-77
2023/09/16 12:25:59;;;;;;;12.40;6.40;;;27.10;21.00;;;;;;5043218;28;20475;-76
2023/09/16 12:28:27;;;;;;;8.63;6.35;;;27.30;20.20;;;;;;5061407;28;20417;-77
2023/09/16 12:30:55;;;;;;;9.00;6.50;;;27.40;20.10;;;;;;5050528;28;20400;-77
2023/09/16 12:33:44;;;;;;;7.63;6.20;;;27.50;20.30;;;;;;5063776;28;20476;-78
2023/09/16 12:36:18;;;;;;;8.45;6.10;;;27.60;19.60;;;;;;5059525;28;20400;-76
2023/09/16 12:38:45;;;;;;;10.23;6.70;;;27.80;19.50;;;;;;5061431;28;20385;-77
2023/09/16 12:41:12;;;;;;;7.40;6.50;;;27.90;19.00;;;;;;5061509;28;20472;-76